Time;durP1;ratioP1;P1;durP2;ratioP2;P2;SDS_P1;SDS_P2;PMS_P1;PMS_P2;Temp;Humidity;BMP_temperature;BMP_pressure;BME280_temperature;BME280_humidity;BME280_pressure;Samples;Min_cycle;Max_cycle;Signal;HPM_P1;HPM_P2
2023/06/07 00:01:25;;;;;;;7.13;5.90;;;18.50;96.10;;;;;;5051393;28;20024;-48
2023/06/07 00:03:51;;;;;;;6.40;5.63;;;18.50;96.70;;;;;;5051685;28;20028;-48
2023/06/07 00:06:16;;;;;;;8.55;6.10;;;18.50;96.90;;;;;;5051166;28;20024;-51
2023/06/07 00:08:43;;;;;;;7.82;5.97;;;18.50;96.40;;;;;;5051130;28;20021;-50
2023/06/07 00:11:09;;;;;;;6.60;5.75;;;18.50;96.80;;;;;;5051287;28;20074;-51
2023/06/07 00:13:35;;;;;;;8.57;5.78;;;18.50;96.20;;;;;;5064709;28;20033;-49
2023/06/07 00:16:00;;;;;;;8.23;6.47;;;18.40;95.70;;;;;;5062201;28;20028;-48
2023/06/07 00:18:28;;;;;;;7.40;5.70;;;18.40;96.30;;;;;;5062602;28;20096;-51
2023/06/07 00:20:53;;;;;;;8.40;6.10;;;18.40;96.20;;;;;;5062196;28;20031;-49
2023/06/07 00:23:20;;;;;;;8.32;5.93;;;18.40;97.20;;;;;;5078490;28;20032;-49
2023/06/07 00:25:47;;;;;;;8.40;6.10;;;18.30;98.10;;;;;;5091072;28;20044;-48
2023/06/07 00:28:12;;;;;;;4.97;4.57;;;18.30;99.00;;;;;;5090526;28;20111;-50
2023/06/07 00:30:38;;;;;;;5.63;5.13;;;18.30;99.30;;;;;;5071245;28;20418;-48
2023/06/07 00:33:04;;;;;;;6.35;5.57;;;18.20;99.90;;;;;;5050676;28;20418;-48
2023/06/07 00:35:30;;;;;;;7.97;6.43;;;18.20;99.70;;;;;;5051040;28;20033;-48
2023/06/07 00:37:55;;;;;;;7.18;5.65;;;18.20;99.60;;;;;;5058300;28;20028;-49
2023/06/07 00:40:21;;;;;;;6.18;5.57;;;18.20;99.40;;;;;;5061438;28;20028;-49
2023/06/07 00:42:46;;;;;;;9.63;5.95;;;18.20;99.60;;;;;;5070430;28;20025;-49
2023/06/07 00:45:12;;;;;;;8.60;5.75;;;18.20;99.90;;;;;;5066785;28;20116;-48
2023/06/07 00:47:39;;;;;;;9.48;5.93;;;18.20;99.90;;;;;;5062555;28;20024;-49
2023/06/07 00:50:06;;;;;;;9.80;6.68;;;18.20;99.40;;;;;;5052444;28;20075;-50
2023/06/07 00:52:35;;;;;;;6.60;5.93;;;18.20;98.50;;;;;;5067421;28;20470;-48
2023/06/07 00:55:02;;;;;;;9.10;6.35;;;18.20;99.30;;;;;;5088660;28;20250;-51
2023/06/07 00:57:32;;;;;;;9.27;6.70;;;18.20;99.20;;;;;;5060489;28;20433;-47
2023/06/07 00:59:59;;;;;;;;;;;18.20;99.00;;;;;;5061738;28;20024;-48
2023/06/07 01:02:26;;;;;;;8.82;6.20;;;18.10;99.90;;;;;;5070188;28;20435;-49
2023/06/07 01:04:52;;;;;;;8.05;6.03;;;18.20;99.10;;;;;;5070273;28;20067;-48
2023/06/07 01:07:22;;;;;;;8.63;6.40;;;18.20;98.60;;;;;;5061767;28;20036;-49
2023/06/07 01:09:47;;;;;;;8.75;6.45;;;18.20;98.50;;;;;;5068023;28;20081;-47
2023/06/07 01:12:15;;;;;;;10.63;6.25;;;18.20;98.50;;;;;;5088183;28;20036;-48
2023/06/07 01:14:41;;;;;;;8.48;6.80;;;18.20;98.60;;;;;;5088556;28;20109;-48
2023/06/07 01:17:08;;;;;;;7.25;6.03;;;18.20;98.20;;;;;;5089688;28;20111;-48
2023/06/07 01:19:36;;;;;;;8.38;6.95;;;18.20;98.90;;;;;;5067877;28;20051;-48
2023/06/07 01:22:06;;;;;;;8.48;6.35;;;18.20;99.50;;;;;;5058491;28;20024;-48
2023/06/07 01:24:35;;;;;;;8.63;6.65;;;18.10;99.20;;;;;;5072211;28;20035;-50
2023/06/07 01:27:02;;;;;;;7.75;6.47;;;18.10;99.90;;;;;;5055872;28;20427;-48
2023/06/07 01:29:30;;;;;;;8.68;6.25;;;18.10;99.90;;;;;;5049353;28;20067;-49
2023/06/07 01:31:57;;;;;;;9.30;6.38;;;18.10;99.90;;;;;;5057576;28;20020;-50
2023/06/07 01:34:23;;;;;;;7.20;6.40;;;18.10;99.90;;;;;;5050182;28;20036;-48
2023/06/07 01:36:50;;;;;;;7.25;6.30;;;18.00;99.90;;;;;;5056244;28;20029;-49
2023/06/07 01:39:18;;;;;;;7.15;6.45;;;18.00;99.90;;;;;;5087444;28;20059;-49
2023/06/07 01:41:45;;;;;;;7.78;6.25;;;17.90;99.90;;;;;;5077114;28;20028;-49
2023/06/07 01:44:13;;;;;;;8.43;6.53;;;17.90;99.90;;;;;;5047993;28;20174;-47
2023/06/07 01:46:39;;;;;;;6.90;6.10;;;17.90;99.90;;;;;;5057537;28;20025;-49
2023/06/07 01:49:06;;;;;;;7.88;6.20;;;17.90;99.90;;;;;;5049813;28;20454;-49
2023/06/07 01:51:32;;;;;;;8.55;6.72;;;17.90;99.90;;;;;;5058065;28;20025;-50
2023/06/07 01:53:58;;;;;;;6.97;6.20;;;17.90;99.90;;;;;;5076972;28;20394;-49
2023/06/07 01:56:35;;;;;;;7.90;6.95;;;17.90;99.90;;;;;;5089199;28;20081;-51
2023/06/07 01:59:01;;;;;;;8.13;6.70;;;17.90;99.90;;;;;;5072011;28;20036;-48
2023/06/07 02:01:36;;;;;;;7.97;6.65;;;17.90;99.90;;;;;;5069273;28;20020;-49
2023/06/07 02:04:03;;;;;;;7.90;6.63;;;17.90;99.90;;;;;;5052667;28;20021;-50
2023/06/07 02:06:32;;;;;;;7.70;6.15;;;17.80;99.90;;;;;;5064873;28;20017;-48
2023/06/07 02:09:03;;;;;;;7.75;6.95;;;17.80;99.90;;;;;;5048628;28;20029;-48
2023/06/07 02:11:29;;;;;;;;;;;17.80;99.90;;;;;;5074954;28;20019;-48
2023/06/07 02:13:55;;;;;;;8.52;6.72;;;17.80;99.90;;;;;;5086717;28;20003;-50
2023/06/07 02:16:35;;;;;;;8.25;6.32;;;17.80;99.90;;;;;;5048820;28;20020;-48
2023/06/07 02:19:04;;;;;;;8.45;7.13;;;17.90;99.90;;;;;;5048126;28;20055;-49
2023/06/07 02:21:31;;;;;;;8.00;7.07;;;17.90;99.90;;;;;;5056633;28;20040;-48
2023/06/07 02:23:56;;;;;;;8.57;6.93;;;17.90;99.90;;;;;;5084009;28;20069;-49
2023/06/07 02:26:24;;;;;;;8.93;6.80;;;17.90;99.90;;;;;;5065481;28;20022;-48
2023/06/07 02:28:49;;;;;;;7.28;6.43;;;17.90;99.90;;;;;;5046838;28;20048;-48
2023/06/07 02:31:16;;;;;;;9.15;6.95;;;18.00;99.90;;;;;;5047115;28;20090;-49
2023/06/07 02:33:42;;;;;;;7.35;6.57;;;18.00;99.90;;;;;;5047988;28;20390;-47
2023/06/07 02:36:07;;;;;;;7.90;6.63;;;17.90;99.90;;;;;;5056225;28;20040;-49
2023/06/07 02:38:33;;;;;;;7.80;7.00;;;17.90;99.90;;;;;;5054442;28;20060;-50
2023/06/07 02:40:59;;;;;;;11.48;6.93;;;17.90;99.90;;;;;;5047754;28;20457;-50
2023/06/07 02:43:24;;;;;;;8.00;6.95;;;17.90;99.90;;;;;;5050407;28;20012;-50
2023/06/07 02:45:50;;;;;;;8.88;7.10;;;17.90;99.90;;;;;;5068414;28;20466;-50
2023/06/07 02:48:16;;;;;;;8.15;6.88;;;17.80;99.90;;;;;;5059602;28;20021;-48
2023/06/07 02:50:41;;;;;;;10.30;6.47;;;17.80;99.90;;;;;;5059360;28;20008;-48
2023/06/07 02:53:07;;;;;;;9.20;7.00;;;17.80;99.90;;;;;;5073356;28;20032;-49
2023/06/07 02:55:33;;;;;;;7.25;6.30;;;17.80;99.90;;;;;;5079631;28;20020;-48
2023/06/07 02:57:59;;;;;;;7.72;6.65;;;17.80;99.90;;;;;;5079913;28;20024;-48
2023/06/07 03:00:26;;;;;;;7.72;6.72;;;17.70;99.90;;;;;;5070707;28;20509;-50
2023/06/07 03:02:51;;;;;;;6.80;6.10;;;17.70;99.90;;;;;;5080901;28;20035;-48
2023/06/07 03:05:17;;;;;;;7.40;6.55;;;17.70;99.90;;;;;;5086818;28;20016;-49
2023/06/07 03:07:43;;;;;;;7.97;6.63;;;17.60;99.90;;;;;;5059786;28;20021;-50
2023/06/07 03:10:09;;;;;;;8.38;7.13;;;17.60;99.90;;;;;;5048339;28;20045;-50
2023/06/07 03:12:34;;;;;;;9.40;7.22;;;17.60;99.90;;;;;;5063473;28;20545;-49
2023/06/07 03:15:00;;;;;;;8.77;6.63;;;17.60;99.90;;;;;;5047941;28;20109;-47
2023/06/07 03:17:25;;;;;;;7.50;6.70;;;17.70;99.90;;;;;;5051384;28;20054;-47
2023/06/07 03:19:51;;;;;;;8.27;6.72;;;17.70;99.90;;;;;;5052384;28;20083;-47
2023/06/07 03:22:17;;;;;;;7.60;6.57;;;17.70;99.90;;;;;;5068741;28;20062;-47
2023/06/07 03:24:43;;;;;;;10.43;6.68;;;17.70;99.90;;;;;;5079558;28;20012;-47
2023/06/07 03:27:08;;;;;;;8.05;7.25;;;17.70;99.90;;;;;;5079792;28;20094;-47
2023/06/07 03:29:34;;;;;;;8.30;6.18;;;17.60;99.90;;;;;;5082812;28;20051;-48
2023/06/07 03:32:00;;;;;;;8.70;7.80;;;17.60;99.90;;;;;;5051235;28;20025;-47
2023/06/07 03:34:29;;;;;;;7.55;6.70;;;17.60;99.90;;;;;;5059368;28;20035;-48
2023/06/07 03:36:55;;;;;;;7.97;6.95;;;17.60;99.90;;;;;;5051641;28;20104;-48
2023/06/07 03:39:21;;;;;;;8.13;6.53;;;17.60;99.90;;;;;;5050066;28;20474;-50
2023/06/07 03:41:46;;;;;;;9.52;7.95;;;17.50;99.90;;;;;;5053629;28;20237;-49
2023/06/07 03:44:12;;;;;;;10.18;7.97;;;17.50;99.90;;;;;;5048004;28;20025;-51
2023/06/07 03:46:37;;;;;;;8.23;7.32;;;17.60;99.90;;;;;;5075387;28;20043;-50
2023/06/07 03:49:03;;;;;;;7.57;6.85;;;17.60;99.90;;;;;;5091026;28;20028;-48
2023/06/07 03:51:32;;;;;;;8.75;7.72;;;17.60;99.90;;;;;;5060306;28;20056;-47
2023/06/07 03:53:57;;;;;;;9.57;7.35;;;17.60;99.90;;;;;;5087665;28;20432;-48
2023/06/07 03:56:23;;;;;;;8.30;7.30;;;17.60;99.90;;;;;;5072013;28;20035;-48
2023/06/07 03:58:48;;;;;;;8.32;6.78;;;17.60;99.90;;;;;;5056327;28;20082;-49
2023/06/07 04:01:16;;;;;;;9.32;6.88;;;17.60;99.90;;;;;;5057749;28;20124;-48
2023/06/07 04:03:42;;;;;;;13.27;7.60;;;17.60;99.90;;;;;;5051242;28;20539;-49
2023/06/07 04:06:09;;;;;;;11.68;7.88;;;17.50;99.90;;;;;;5050542;28;20147;-48
2023/06/07 04:08:36;;;;;;;7.85;7.05;;;17.50;99.90;;;;;;5066004;28;20455;-49
2023/06/07 04:11:02;;;;;;;8.70;7.70;;;17.50;99.90;;;;;;5050559;28;20017;-48
2023/06/07 04:13:27;;;;;;;9.38;7.78;;;17.50;99.90;;;;;;5051051;28;20378;-50
2023/06/07 04:15:53;;;;;;;10.48;7.97;;;17.50;99.90;;;;;;5058040;28;20075;-48
2023/06/07 04:18:18;;;;;;;14.25;8.15;;;17.60;99.90;;;;;;5051833;28;20037;-50
2023/06/07 04:20:44;;;;;;;9.50;8.05;;;17.60;99.90;;;;;;5051146;28;20047;-49
2023/06/07 04:23:10;;;;;;;11.88;8.10;;;17.70;99.90;;;;;;5063168;28;20031;-49
2023/06/07 04:25:36;;;;;;;9.90;7.53;;;17.70;99.90;;;;;;5060572;28;20088;-50
2023/06/07 04:28:02;;;;;;;8.07;7.22;;;17.60;99.90;;;;;;5056554;28;20028;-49
2023/06/07 04:30:34;;;;;;;11.20;8.18;;;17.70;99.90;;;;;;5063356;28;20054;-51
2023/06/07 04:33:08;;;;;;;9.23;8.13;;;17.70;99.90;;;;;;5070297;28;20474;-49
2023/06/07 04:35:41;;;;;;;12.20;8.32;;;17.60;99.90;;;;;;5064680;28;20716;-48
2023/06/07 04:38:09;;;;;;;10.30;8.43;;;17.60;99.90;;;;;;5057875;28;20071;-48
2023/06/07 04:40:40;;;;;;;13.13;9.45;;;17.50;99.90;;;;;;5059336;28;20028;-50
2023/06/07 04:43:07;;;;;;;12.57;8.48;;;17.50;99.90;;;;;;5058466;28;20381;-48
2023/06/07 04:45:33;;;;;;;10.60;8.93;;;17.50;99.90;;;;;;5060031;28;20028;-49
2023/06/07 04:48:00;;;;;;;11.98;9.55;;;17.50;99.90;;;;;;5058525;28;20017;-50
2023/06/07 04:50:28;;;;;;;11.45;9.00;;;17.50;99.90;;;;;;5056942;28;20017;-50
2023/06/07 04:53:00;;;;;;;15.15;8.75;;;17.50;99.90;;;;;;5071630;28;20027;-47
2023/06/07 04:55:31;;;;;;;15.60;9.32;;;17.50;99.90;;;;;;5083425;28;20028;-48
2023/06/07 04:57:58;;;;;;;10.75;8.70;;;17.60;99.90;;;;;;5054970;28;20175;-48
2023/06/07 05:00:27;;;;;;;12.55;8.73;;;17.50;99.90;;;;;;5058145;28;20031;-49
2023/06/07 05:02:54;;;;;;;11.85;9.35;;;17.60;99.90;;;;;;5058219;28;20025;-49
2023/06/07 05:05:20;;;;;;;10.05;8.70;;;17.60;99.90;;;;;;5060318;28;20016;-48
2023/06/07 05:07:46;;;;;;;14.63;8.77;;;17.60;99.90;;;;;;5059017;28;20028;-48
2023/06/07 05:10:12;;;;;;;11.20;8.57;;;17.60;99.90;;;;;;5059925;28;20027;-48
2023/06/07 05:12:38;;;;;;;9.80;7.93;;;17.50;99.90;;;;;;5061809;28;20433;-50
2023/06/07 05:15:05;;;;;;;9.70;8.65;;;17.60;99.90;;;;;;5061611;28;20379;-51
2023/06/07 05:17:31;;;;;;;11.00;8.07;;;17.60;99.90;;;;;;5062536;28;20035;-49
2023/06/07 05:19:56;;;;;;;12.98;8.48;;;17.60;99.90;;;;;;5061796;28;20067;-48
2023/06/07 05:22:22;;;;;;;10.75;7.97;;;17.60;99.90;;;;;;5063331;28;20027;-50
2023/06/07 05:24:48;;;;;;;8.68;7.78;;;17.70;99.90;;;;;;5060973;28;20714;-49
2023/06/07 05:27:17;;;;;;;11.95;8.07;;;17.70;99.90;;;;;;5054374;28;20036;-48
2023/06/07 05:29:43;;;;;;;12.73;8.15;;;17.80;99.90;;;;;;5048667;28;20044;-48
2023/06/07 05:32:09;;;;;;;9.45;8.25;;;17.80;99.90;;;;;;5050260;28;20263;-51
2023/06/07 05:34:35;;;;;;;12.70;9.18;;;17.80;99.90;;;;;;5064851;28;20100;-49
2023/06/07 05:37:04;;;;;;;12.82;8.45;;;18.00;99.90;;;;;;5067737;28;20048;-49
2023/06/07 05:39:30;;;;;;;14.43;10.02;;;18.10;99.90;;;;;;5084957;28;20071;-48
2023/06/07 05:41:55;;;;;;;11.25;8.73;;;18.20;99.90;;;;;;5053466;28;20049;-48
2023/06/07 05:44:21;;;;;;;11.30;9.00;;;18.30;99.90;;;;;;5060282;28;20526;-49
2023/06/07 05:46:47;;;;;;;11.43;8.85;;;18.30;99.90;;;;;;5067921;28;20024;-49
2023/06/07 05:49:12;;;;;;;9.90;8.35;;;18.40;99.90;;;;;;5067212;28;20024;-48
2023/06/07 05:51:37;;;;;;;12.68;8.55;;;18.40;99.90;;;;;;5054259;28;20116;-50
2023/06/07 05:54:06;;;;;;;10.77;7.78;;;18.60;99.90;;;;;;5086008;28;20380;-48
2023/06/07 05:56:32;;;;;;;14.68;8.02;;;18.60;99.90;;;;;;5072145;28;20036;-48
2023/06/07 05:58:58;;;;;;;11.15;8.30;;;18.70;99.90;;;;;;5047180;28;20037;-48
2023/06/07 06:01:23;;;;;;;9.82;8.18;;;18.70;99.90;;;;;;5048951;28;20047;-48
2023/06/07 06:03:50;;;;;;;11.45;8.80;;;18.90;99.90;;;;;;5055990;28;20017;-48
2023/06/07 06:06:17;;;;;;;12.55;8.02;;;18.90;99.90;;;;;;5059558;28;20025;-50
2023/06/07 06:08:45;;;;;;;10.48;7.93;;;19.00;99.90;;;;;;5070977;28;20078;-48
2023/06/07 06:11:12;;;;;;;11.73;7.80;;;19.00;99.90;;;;;;5048605;28;20032;-48
2023/06/07 06:13:39;;;;;;;12.85;8.05;;;18.90;99.90;;;;;;5055895;28;20309;-48
2023/06/07 06:16:05;;;;;;;7.80;7.00;;;18.90;99.90;;;;;;5049059;28;20488;-50
2023/06/07 06:18:30;;;;;;;14.88;8.45;;;18.90;99.90;;;;;;5059838;28;20020;-51
2023/06/07 06:20:57;;;;;;;10.40;8.48;;;18.80;99.90;;;;;;5057260;28;20342;-51
2023/06/07 06:23:23;;;;;;;8.77;7.88;;;18.80;99.90;;;;;;5065783;28;20052;-49
2023/06/07 06:25:49;;;;;;;9.27;7.70;;;18.80;99.90;;;;;;5060718;28;20553;-48
2023/06/07 06:28:14;;;;;;;10.93;9.02;;;18.80;99.90;;;;;;5059021;28;20029;-48
2023/06/07 06:30:40;;;;;;;10.90;7.93;;;18.90;99.90;;;;;;5049002;28;20060;-49
2023/06/07 06:33:05;;;;;;;11.30;7.95;;;18.90;99.90;;;;;;5051351;28;20396;-48
2023/06/07 06:35:32;;;;;;;16.40;8.88;;;19.00;99.90;;;;;;5055446;28;20329;-48
2023/06/07 06:37:59;;;;;;;10.27;7.93;;;19.10;99.90;;;;;;5055264;28;20501;-48
2023/06/07 06:40:26;;;;;;;9.82;7.90;;;19.30;99.90;;;;;;5055493;28;20064;-48
2023/06/07 06:42:51;;;;;;;12.25;7.97;;;19.40;99.90;;;;;;5056008;28;20020;-50
2023/06/07 06:45:17;;;;;;;12.45;9.32;;;19.60;99.90;;;;;;5057220;28;20020;-48
2023/06/07 06:47:42;;;;;;;17.20;8.93;;;19.70;99.90;;;;;;5056664;28;20533;-48
2023/06/07 06:50:10;;;;;;;13.52;8.57;;;19.70;99.90;;;;;;5054593;28;20013;-48
2023/06/07 06:52:35;;;;;;;13.57;7.85;;;19.90;99.90;;;;;;5066934;28;20031;-49
2023/06/07 06:57:45;;;;;;;11.68;7.40;;;20.20;99.90;;;;;;5051259;28;20114;-48
2023/06/07 07:00:11;;;;;;;9.05;7.93;;;20.30;99.90;;;;;;5057571;28;20033;-49
2023/06/07 07:02:37;;;;;;;13.65;8.10;;;20.40;99.40;;;;;;5058963;28;20040;-48
2023/06/07 07:05:05;;;;;;;9.50;7.40;;;20.50;99.90;;;;;;5060557;28;20017;-48
2023/06/07 07:07:31;;;;;;;11.23;8.15;;;20.50;98.70;;;;;;5060718;28;20263;-48
2023/06/07 07:09:57;;;;;;;11.77;6.60;;;20.60;98.70;;;;;;5061144;28;20024;-48
2023/06/07 07:12:23;;;;;;;8.57;6.97;;;20.70;98.80;;;;;;5059167;28;20406;-48
2023/06/07 07:14:49;;;;;;;9.82;7.03;;;20.80;98.30;;;;;;5059443;28;20115;-49
2023/06/07 07:17:15;;;;;;;9.35;7.15;;;20.80;97.90;;;;;;5060135;28;20028;-48
2023/06/07 07:19:40;;;;;;;10.35;7.68;;;20.90;97.70;;;;;;5060821;28;20036;-49
2023/06/07 07:22:06;;;;;;;8.88;7.22;;;21.00;98.30;;;;;;5060235;28;20021;-48
2023/06/07 07:24:32;;;;;;;10.30;6.72;;;21.00;98.00;;;;;;5059968;28;20116;-48
2023/06/07 07:26:57;;;;;;;9.30;6.88;;;21.20;97.60;;;;;;5063387;28;20059;-48
2023/06/07 07:29:23;;;;;;;8.75;6.68;;;21.30;97.30;;;;;;5065696;28;20033;-49
2023/06/07 07:31:48;;;;;;;11.27;6.28;;;21.40;96.10;;;;;;5063528;28;20025;-48
2023/06/07 07:34:14;;;;;;;10.25;6.63;;;21.40;95.30;;;;;;5064078;28;20020;-48
2023/06/07 07:36:40;;;;;;;12.57;6.45;;;21.60;95.90;;;;;;5062530;28;20426;-48
2023/06/07 07:39:06;;;;;;;10.63;7.22;;;21.70;95.90;;;;;;5064637;28;20016;-49
2023/06/07 07:41:34;;;;;;;11.13;6.78;;;21.70;95.60;;;;;;5064021;28;20077;-49
2023/06/07 07:44:00;;;;;;;8.45;6.50;;;21.70;95.40;;;;;;5062038;28;20111;-50
2023/06/07 07:46:26;;;;;;;8.77;6.25;;;21.70;95.50;;;;;;5059730;28;20071;-48
2023/06/07 07:48:52;;;;;;;8.43;6.28;;;21.80;94.20;;;;;;5065369;28;20017;-51
2023/06/07 07:51:17;;;;;;;7.93;6.00;;;21.70;94.30;;;;;;5065953;28;20047;-49
2023/06/07 07:53:43;;;;;;;9.60;6.68;;;21.70;94.50;;;;;;5074728;28;20052;-49
2023/06/07 07:56:09;;;;;;;9.45;6.78;;;21.80;94.60;;;;;;5055121;28;20513;-50
2023/06/07 07:58:35;;;;;;;10.63;6.38;;;21.80;93.80;;;;;;5054214;28;20032;-48
2023/06/07 08:01:01;;;;;;;9.65;5.88;;;21.80;94.00;;;;;;5062488;28;20020;-50
2023/06/07 08:03:28;;;;;;;8.65;6.43;;;21.90;93.70;;;;;;5051706;28;20021;-50
2023/06/07 08:05:53;;;;;;;8.27;6.78;;;21.90;94.00;;;;;;5055291;28;20508;-48
2023/06/07 08:08:19;;;;;;;9.35;6.90;;;21.90;93.40;;;;;;5049778;28;20060;-49
2023/06/07 08:10:46;;;;;;;8.88;6.78;;;21.90;93.90;;;;;;5058722;28;20017;-49
2023/06/07 08:13:12;;;;;;;7.88;6.10;;;21.80;93.70;;;;;;5058939;28;20024;-51
2023/06/07 08:15:38;;;;;;;8.82;6.03;;;22.00;94.10;;;;;;5059036;28;20056;-49
2023/06/07 08:18:03;;;;;;;7.65;6.60;;;22.00;93.80;;;;;;5057710;28;20032;-50
2023/06/07 08:20:29;;;;;;;11.02;6.15;;;22.00;93.70;;;;;;5059292;28;20148;-48
2023/06/07 08:22:55;;;;;;;6.90;5.82;;;22.10;93.70;;;;;;5057504;28;20021;-49
2023/06/07 08:25:21;;;;;;;9.18;5.47;;;22.30;93.50;;;;;;5065657;28;20024;-48
2023/06/07 08:27:46;;;;;;;8.52;5.22;;;22.50;92.50;;;;;;5061479;28;20053;-49
2023/06/07 08:30:12;;;;;;;8.20;5.75;;;22.60;91.80;;;;;;5068476;28;20073;-50
2023/06/07 08:32:38;;;;;;;11.05;5.38;;;22.70;91.20;;;;;;5062866;28;20324;-51
2023/06/07 08:35:04;;;;;;;31.83;22.35;;;22.80;89.40;;;;;;5063327;28;20280;-48
2023/06/07 08:37:30;;;;;;;15.48;12.90;;;23.00;89.70;;;;;;5090076;28;20051;-50
2023/06/07 08:39:56;;;;;;;17.05;11.02;;;23.00;89.30;;;;;;5058430;28;20491;-50
2023/06/07 08:42:21;;;;;;;7.75;6.47;;;23.30;88.80;;;;;;5058163;28;20040;-48
2023/06/07 08:44:47;;;;;;;7.13;5.88;;;23.20;88.10;;;;;;5059598;28;20512;-48
2023/06/07 08:47:13;;;;;;;6.70;5.63;;;23.40;89.30;;;;;;5058762;28;20526;-51
2023/06/07 08:49:40;;;;;;;6.85;4.93;;;23.50;88.90;;;;;;5062642;28;20025;-52
2023/06/07 08:52:09;;;;;;;5.90;5.22;;;23.50;88.40;;;;;;5063143;28;20024;-51
2023/06/07 08:54:40;;;;;;;6.55;5.47;;;23.60;90.10;;;;;;5080098;28;20060;-51
2023/06/07 08:57:06;;;;;;;9.00;5.63;;;23.70;88.00;;;;;;5088409;28;20032;-48
2023/06/07 08:59:33;;;;;;;7.38;5.35;;;23.90;87.30;;;;;;5066907;28;20442;-51
2023/06/07 09:01:58;;;;;;;14.77;6.80;;;23.80;87.70;;;;;;5054715;28;20482;-52
2023/06/07 09:04:25;;;;;;;22.85;9.05;;;23.90;86.60;;;;;;5056073;28;20112;-50
2023/06/07 09:06:51;;;;;;;8.50;5.97;;;23.90;86.70;;;;;;5055190;28;20056;-51
2023/06/07 09:09:17;;;;;;;11.43;5.70;;;23.90;86.60;;;;;;5058323;28;20102;-52
2023/06/07 09:11:43;;;;;;;9.88;5.32;;;24.00;87.90;;;;;;5049883;28;20021;-52
2023/06/07 09:14:11;;;;;;;14.40;6.95;;;24.20;84.40;;;;;;5058189;28;20104;-48
2023/06/07 09:16:54;;;;;;;135.88;35.95;;;24.40;83.20;;;;;;5056698;28;20036;-49
2023/06/07 09:19:39;;;;;;;110.88;30.35;;;24.30;82.00;;;;;;5061567;28;20107;-51
2023/06/07 09:22:06;;;;;;;21.75;8.95;;;24.30;81.90;;;;;;5064256;28;20095;-49
2023/06/07 09:24:33;;;;;;;7.82;5.90;;;24.30;81.40;;;;;;5078582;28;20027;-48
2023/06/07 09:27:00;;;;;;;6.18;4.88;;;24.40;82.80;;;;;;5057193;28;20029;-48
2023/06/07 09:29:28;;;;;;;88.22;28.02;;;24.60;81.90;;;;;;5045865;28;20017;-49
2023/06/07 09:32:15;;;;;;;51.10;16.42;;;24.80;80.50;;;;;;5050937;28;20029;-50
2023/06/07 09:34:41;;;;;;;20.02;8.60;;;24.90;78.50;;;;;;5049630;28;20493;-52
2023/06/07 09:37:07;;;;;;;10.40;4.97;;;25.10;77.60;;;;;;5064912;28;20270;-51
2023/06/07 09:39:33;;;;;;;7.05;4.78;;;25.10;76.00;;;;;;5067564;28;20526;-49
2023/06/07 09:41:58;;;;;;;7.35;4.35;;;25.10;77.00;;;;;;5061560;28;20032;-49
2023/06/07 09:44:25;;;;;;;8.68;5.18;;;25.10;77.60;;;;;;5059106;28;20017;-48
2023/06/07 09:46:51;;;;;;;6.38;4.75;;;25.20;78.50;;;;;;5049135;28;20507;-52
2023/06/07 09:49:31;;;;;;;6.78;5.00;;;25.30;77.40;;;;;;5075519;28;20024;-51
2023/06/07 09:51:56;;;;;;;5.78;4.25;;;25.40;77.60;;;;;;5077908;28;20115;-52
2023/06/07 09:54:38;;;;;;;8.10;4.80;;;25.50;76.70;;;;;;5079805;28;20546;-51
2023/06/07 09:57:10;;;;;;;8.82;4.88;;;25.70;76.80;;;;;;5055181;28;20057;-52
2023/06/07 09:59:37;;;;;;;11.60;4.95;;;25.80;76.50;;;;;;5048486;28;20035;-50
2023/06/07 10:02:22;;;;;;;5.80;4.38;;;25.90;73.50;;;;;;5048714;28;20028;-49
2023/06/07 10:04:48;;;;;;;7.80;4.43;;;25.70;74.80;;;;;;5049120;28;20164;-52
2023/06/07 10:07:15;;;;;;;5.30;4.50;;;25.50;74.40;;;;;;5057772;28;20112;-52
2023/06/07 10:09:42;;;;;;;5.65;4.03;;;25.50;73.50;;;;;;5052962;28;20025;-51
2023/06/07 10:12:10;;;;;;;19.17;16.67;;;25.40;71.70;;;;;;5056918;28;20081;-50
2023/06/07 10:14:38;;;;;;;27.50;21.98;;;25.30;69.80;;;;;;5048853;28;20021;-52
2023/06/07 10:17:06;;;;;;;16.52;13.13;;;25.10;69.30;;;;;;5050508;28;20028;-52
2023/06/07 10:19:42;;;;;;;9.63;6.53;;;24.90;68.90;;;;;;5056480;28;20032;-51
2023/06/07 10:22:18;;;;;;;6.03;4.00;;;24.80;70.10;;;;;;5079994;28;20025;-49
2023/06/07 10:25:09;;;;;;;5.82;4.30;;;24.80;69.60;;;;;;5085800;28;20047;-52
2023/06/07 10:28:04;;;;;;;4.97;4.00;;;24.70;69.40;;;;;;5049203;28;20086;-52
2023/06/07 10:30:32;;;;;;;4.38;3.83;;;24.50;70.20;;;;;;5049380;28;20049;-48
2023/06/07 10:33:18;;;;;;;7.45;4.05;;;24.40;71.20;;;;;;5058168;28;20506;-48
2023/06/07 10:36:06;;;;;;;5.97;4.38;;;24.40;69.30;;;;;;5031245;28;20046;-52
2023/06/07 10:38:33;;;;;;;5.25;4.00;;;24.40;70.00;;;;;;4959722;28;20038;-49
2023/06/07 10:41:06;;;;;;;6.88;3.83;;;24.40;70.70;;;;;;5009084;28;20149;-52
2023/06/07 10:43:33;;;;;;;5.20;3.95;;;24.50;70.50;;;;;;5025903;28;20041;-50
2023/06/07 10:46:22;;;;;;;7.85;4.07;;;24.60;69.60;;;;;;5017770;28;20041;-50
2023/06/07 10:48:49;;;;;;;6.23;3.63;;;24.80;68.30;;;;;;5041194;28;20037;-52
2023/06/07 10:51:15;;;;;;;9.07;4.00;;;24.90;67.40;;;;;;5047953;28;20029;-52
2023/06/07 10:53:56;;;;;;;5.97;4.00;;;25.20;67.90;;;;;;5059855;28;20382;-51
2023/06/07 10:56:28;;;;;;;;;;;25.20;66.50;;;;;;5086793;28;20031;-52
2023/06/07 10:58:53;;;;;;;9.52;4.10;;;25.10;66.60;;;;;;5064439;28;20057;-51
2023/06/07 11:01:26;;;;;;;5.90;4.18;;;25.20;68.10;;;;;;5057443;28;20100;-48
2023/06/07 11:03:53;;;;;;;7.55;3.95;;;25.10;66.80;;;;;;5056676;28;20096;-50
2023/06/07 11:06:19;;;;;;;7.78;4.07;;;25.30;68.10;;;;;;5046791;28;20021;-49
2023/06/07 11:08:44;;;;;;;4.70;3.85;;;25.30;69.50;;;;;;5080512;28;20051;-50
2023/06/07 11:11:42;;;;;;;5.65;4.40;;;25.20;67.30;;;;;;5069440;28;20017;-48
2023/06/07 11:14:08;;;;;;;8.45;4.65;;;25.20;66.80;;;;;;5053874;28;20051;-52
2023/06/07 11:16:34;;;;;;;9.23;4.47;;;25.30;67.00;;;;;;5078325;28;20021;-51
2023/06/07 11:19:05;;;;;;;6.53;4.80;;;25.40;66.80;;;;;;5046671;28;20112;-49
2023/06/07 11:21:53;;;;;;;4.82;4.07;;;25.40;66.20;;;;;;5048121;28;20043;-51
2023/06/07 11:24:20;;;;;;;6.82;4.25;;;26.00;67.20;;;;;;5047965;28;20021;-50
2023/06/07 11:26:50;;;;;;;6.25;4.30;;;26.90;65.10;;;;;;5050016;28;20079;-52
2023/06/07 11:29:16;;;;;;;;;;;27.50;63.30;;;;;;5086621;28;20369;-50
2023/06/07 11:31:45;;;;;;;5.68;3.90;;;27.50;64.50;;;;;;5065111;28;19911;-51
2023/06/07 11:34:12;;;;;;;10.43;4.22;;;27.60;64.50;;;;;;5050368;28;20029;-51
2023/06/07 11:36:37;;;;;;;12.70;4.35;;;27.70;65.00;;;;;;5054838;28;20090;-49
2023/06/07 11:39:08;;;;;;;6.90;4.32;;;27.60;65.00;;;;;;5055611;28;20477;-48
2023/06/07 11:41:40;;;;;;;5.75;4.35;;;27.50;65.00;;;;;;5047803;28;20025;-50
2023/06/07 11:44:06;;;;;;;8.80;4.53;;;27.50;66.80;;;;;;5048334;28;20025;-51
2023/06/07 11:46:33;;;;;;;18.30;11.75;;;27.40;66.80;;;;;;5055538;28;20025;-51
2023/06/07 11:49:09;;;;;;;11.38;9.75;;;27.30;66.40;;;;;;5047683;28;20047;-52
2023/06/07 11:51:35;;;;;;;7.78;5.43;;;27.20;64.90;;;;;;5046472;28;20025;-49
2023/06/07 11:54:01;;;;;;;6.07;4.53;;;27.20;66.60;;;;;;5047479;28;20025;-48
2023/06/07 11:56:27;;;;;;;6.07;4.38;;;27.20;68.00;;;;;;5058013;28;20513;-49
2023/06/07 11:58:54;;;;;;;5.10;4.60;;;27.30;66.80;;;;;;5062022;28;20520;-48
2023/06/07 12:01:20;;;;;;;5.25;4.75;;;27.30;66.70;;;;;;5054992;28;20036;-52
2023/06/07 12:03:47;;;;;;;6.45;4.75;;;27.20;68.10;;;;;;5056516;28;20200;-52
2023/06/07 12:06:13;;;;;;;6.65;4.68;;;27.10;67.60;;;;;;5057596;28;20427;-52
2023/06/07 12:08:39;;;;;;;6.22;4.97;;;26.90;67.40;;;;;;5059720;28;20024;-52
2023/06/07 12:11:04;;;;;;;6.43;4.47;;;26.90;67.20;;;;;;5059974;28;20031;-52
2023/06/07 12:13:40;;;;;;;8.43;4.78;;;26.90;67.10;;;;;;5061278;28;20029;-49
2023/06/07 12:16:07;;;;;;;6.40;5.18;;;27.00;67.80;;;;;;5060349;28;20104;-51
2023/06/07 12:18:38;;;;;;;5.55;4.68;;;26.90;68.70;;;;;;5060962;28;20087;-50
2023/06/07 12:21:11;;;;;;;5.93;5.07;;;26.80;68.10;;;;;;5059936;28;20021;-49
2023/06/07 12:23:38;;;;;;;6.75;4.57;;;26.80;68.20;;;;;;5059134;28;20051;-51
2023/06/07 12:26:09;;;;;;;6.13;4.90;;;26.60;67.80;;;;;;5059831;28;20466;-52
2023/06/07 12:28:35;;;;;;;7.63;5.10;;;26.60;67.70;;;;;;5065493;28;20546;-51
2023/06/07 12:31:01;;;;;;;5.85;4.80;;;26.60;68.70;;;;;;5061751;28;20060;-52
2023/06/07 12:33:27;;;;;;;8.35;5.22;;;26.50;69.30;;;;;;5060370;28;20052;-52
2023/06/07 12:35:53;;;;;;;6.03;4.90;;;26.30;71.00;;;;;;5059352;28;20056;-52
2023/06/07 12:38:20;;;;;;;8.02;5.05;;;26.00;69.50;;;;;;5060122;28;20044;-51
2023/06/07 12:40:46;;;;;;;6.15;5.55;;;25.70;71.40;;;;;;5059565;28;20017;-51
2023/06/07 12:43:12;;;;;;;9.07;5.30;;;25.60;72.40;;;;;;5062901;28;20025;-49
2023/06/07 12:45:38;;;;;;;6.78;5.30;;;25.50;72.90;;;;;;5062637;28;20024;-50
2023/06/07 12:48:04;;;;;;;7.25;5.13;;;25.30;73.50;;;;;;5063875;28;20087;-48
2023/06/07 12:50:30;;;;;;;8.27;5.40;;;25.20;74.30;;;;;;5062492;28;20029;-52